sensor_id;sensor_type;location;lat;lon;timestamp;pressure;altitude;pressure_sealevel;temperature;humidity
21588;BME280;10956;48.878;13.316;2024-01-30T00:01:18;95568.38;;;0.56;53.76
21588;BME280;10956;48.878;13.316;2024-01-30T00:03:44;95565.78;;;0.56;53.27
21588;BME280;10956;48.878;13.316;2024-01-30T00:06:09;95562.72;;;0.53;54.15
21588;BME280;10956;48.878;13.316;2024-01-30T00:08:34;95563.81;;;0.58;55.57
21588;BME280;10956;48.878;13.316;2024-01-30T00:11:00;95564.63;;;0.59;57.78
21588;BME280;10956;48.878;13.316;2024-01-30T00:13:26;95565.22;;;0.69;58.20
21588;BME280;10956;48.878;13.316;2024-01-30T00:15:52;95560.66;;;0.71;59.17
21588;BME280;10956;48.878;13.316;2024-01-30T00:18:17;95567.00;;;0.69;60.89
21588;BME280;10956;48.878;13.316;2024-01-30T00:20:44;95568.50;;;0.63;60.28
21588;BME280;10956;48.878;13.316;2024-01-30T00:23:09;95566.25;;;0.60;61.18
21588;BME280;10956;48.878;13.316;2024-01-30T00:25:35;95556.22;;;0.57;58.94
21588;BME280;10956;48.878;13.316;2024-01-30T00:28:00;95562.72;;;0.53;56.45
21588;BME280;10956;48.878;13.316;2024-01-30T00:30:26;95561.56;;;0.55;56.48
21588;BME280;10956;48.878;13.316;2024-01-30T00:32:51;95562.97;;;0.66;58.75
21588;BME280;10956;48.878;13.316;2024-01-30T00:35:17;95563.91;;;0.73;60.38
21588;BME280;10956;48.878;13.316;2024-01-30T00:37:42;95554.16;;;0.75;62.34
21588;BME280;10956;48.878;13.316;2024-01-30T00:40:08;95552.72;;;0.73;63.90
21588;BME280;10956;48.878;13.316;2024-01-30T00:42:35;95551.56;;;0.75;63.33
21588;BME280;10956;48.878;13.316;2024-01-30T00:45:01;95555.59;;;0.78;63.38
21588;BME280;10956;48.878;13.316;2024-01-30T00:47:26;95550.22;;;0.79;63.98
21588;BME280;10956;48.878;13.316;2024-01-30T00:49:52;95552.53;;;0.74;64.76
21588;BME280;10956;48.878;13.316;2024-01-30T00:52:17;95559.06;;;0.70;62.66
21588;BME280;10956;48.878;13.316;2024-01-30T00:54:43;95550.81;;;0.67;61.36
21588;BME280;10956;48.878;13.316;2024-01-30T00:57:08;95549.66;;;0.69;62.52
21588;BME280;10956;48.878;13.316;2024-01-30T00:59:34;95553.50;;;0.73;58.44
21588;BME280;10956;48.878;13.316;2024-01-30T01:01:59;95543.13;;;0.73;58.01
21588;BME280;10956;48.878;13.316;2024-01-30T01:04:25;95549.66;;;0.69;59.14
21588;BME280;10956;48.878;13.316;2024-01-30T01:06:51;95555.47;;;0.71;62.36
21588;BME280;10956;48.878;13.316;2024-01-30T01:09:18;95552.25;;;0.69;64.12
21588;BME280;10956;48.878;13.316;2024-01-30T01:11:43;95554.16;;;0.75;66.48
21588;BME280;10956;48.878;13.316;2024-01-30T01:14:09;95545.03;;;0.79;67.99
21588;BME280;10956;48.878;13.316;2024-01-30T01:16:34;95550.88;;;0.81;68.44
21588;BME280;10956;48.878;13.316;2024-01-30T01:19:00;95545.34;;;0.84;67.85
21588;BME280;10956;48.878;13.316;2024-01-30T01:21:26;95537.84;;;0.89;66.76
21588;BME280;10956;48.878;13.316;2024-01-30T01:23:51;95546.94;;;0.85;65.95
21588;BME280;10956;48.878;13.316;2024-01-30T01:26:16;95537.59;;;0.76;67.46
21588;BME280;10956;48.878;13.316;2024-01-30T01:28:42;95537.66;;;0.68;68.10
21588;BME280;10956;48.878;13.316;2024-01-30T01:31:08;95534.31;;;0.59;68.81
21588;BME280;10956;48.878;13.316;2024-01-30T01:33:34;95542.78;;;0.53;68.77
21588;BME280;10956;48.878;13.316;2024-01-30T01:36:00;95542.78;;;0.53;67.11
21588;BME280;10956;48.878;13.316;2024-01-30T01:38:29;95545.66;;;0.58;62.73
21588;BME280;10956;48.878;13.316;2024-01-30T01:40:54;95536.09;;;0.59;59.94
21588;BME280;10956;48.878;13.316;2024-01-30T01:43:20;95533.44;;;0.67;57.54
21588;BME280;10956;48.878;13.316;2024-01-30T01:45:45;95539.09;;;0.71;55.57
21588;BME280;10956;48.878;13.316;2024-01-30T01:48:11;95536.78;;;0.76;53.40
21588;BME280;10956;48.878;13.316;2024-01-30T01:50:38;95540.38;;;0.75;51.02
21588;BME280;10956;48.878;13.316;2024-01-30T01:53:07;95533.44;;;0.67;51.58
21588;BME280;10956;48.878;13.316;2024-01-30T01:55:33;95535.47;;;0.57;52.24
21588;BME280;10956;48.878;13.316;2024-01-30T01:58:00;95535.50;;;0.49;55.17
21588;BME280;10956;48.878;13.316;2024-01-30T02:00:25;95539.75;;;0.42;55.38
21588;BME280;10956;48.878;13.316;2024-01-30T02:02:52;95527.75;;;0.41;54.29
21588;BME280;10956;48.878;13.316;2024-01-30T02:05:19;95532.59;;;0.44;53.48
21588;BME280;10956;48.878;13.316;2024-01-30T02:07:45;95529.34;;;0.50;51.87
21588;BME280;10956;48.878;13.316;2024-01-30T02:10:10;95525.25;;;0.55;50.00
21588;BME280;10956;48.878;13.316;2024-01-30T02:12:36;95522.59;;;0.63;48.42
21588;BME280;10956;48.878;13.316;2024-01-30T02:15:01;95527.00;;;0.63;47.91
21588;BME280;10956;48.878;13.316;2024-01-30T02:17:27;95525.53;;;0.60;49.09
21588;BME280;10956;48.878;13.316;2024-01-30T02:19:52;95526.53;;;0.59;50.88
21588;BME280;10956;48.878;13.316;2024-01-30T02:22:18;95522.78;;;0.62;53.03
21588;BME280;10956;48.878;13.316;2024-01-30T02:24:44;95520.53;;;0.59;56.00
21588;BME280;10956;48.878;13.316;2024-01-30T02:27:10;95521.56;;;0.50;55.79
21588;BME280;10956;48.878;13.316;2024-01-30T02:29:35;95513.81;;;0.42;53.96
21588;BME280;10956;48.878;13.316;2024-01-30T02:32:01;95514.78;;;0.41;53.32
21588;BME280;10956;48.878;13.316;2024-01-30T02:34:26;95520.97;;;0.40;53.07
21588;BME280;10956;48.878;13.316;2024-01-30T02:36:51;95508.34;;;0.37;54.04
21588;BME280;10956;48.878;13.316;2024-01-30T02:39:17;95519.06;;;0.34;54.83
21588;BME280;10956;48.878;13.316;2024-01-30T02:41:42;95519.06;;;0.34;56.74
21588;BME280;10956;48.878;13.316;2024-01-30T02:44:07;95512.06;;;0.34;57.95
21588;BME280;10956;48.878;13.316;2024-01-30T02:46:33;95513.22;;;0.31;58.05
21588;BME280;10956;48.878;13.316;2024-01-30T02:48:58;95515.78;;;0.40;57.18
21588;BME280;10956;48.878;13.316;2024-01-30T02:51:24;95504.44;;;0.41;57.64
21588;BME280;10956;48.878;13.316;2024-01-30T02:53:49;95515.31;;;0.36;58.74
21588;BME280;10956;48.878;13.316;2024-01-30T02:56:15;95505.78;;;0.28;59.51
21588;BME280;10956;48.878;13.316;2024-01-30T02:58:40;95511.94;;;0.27;59.13
21588;BME280;10956;48.878;13.316;2024-01-30T03:01:06;95516.44;;;0.34;57.98
21588;BME280;10956;48.878;13.316;2024-01-30T03:03:32;95514.50;;;0.36;58.08
21588;BME280;10956;48.878;13.316;2024-01-30T03:05:59;95512.88;;;0.35;58.09
21588;BME280;10956;48.878;13.316;2024-01-30T03:08:24;95512.88;;;0.35;58.10
21588;BME280;10956;48.878;13.316;2024-01-30T03:10:50;95510.63;;;0.31;58.48
21588;BME280;10956;48.878;13.316;2024-01-30T03:13:15;95513.91;;;0.25;58.36
21588;BME280;10956;48.878;13.316;2024-01-30T03:15:40;95511.47;;;0.24;58.79
21588;BME280;10956;48.878;13.316;2024-01-30T03:18:06;95510.03;;;0.21;58.46
21588;BME280;10956;48.878;13.316;2024-01-30T03:20:31;95509.06;;;0.22;57.59
21588;BME280;10956;48.878;13.316;2024-01-30T03:22:57;95501.28;;;0.22;57.86
21588;BME280;10956;48.878;13.316;2024-01-30T03:25:22;95511.19;;;0.19;58.14
21588;BME280;10956;48.878;13.316;2024-01-30T03:27:48;95509.09;;;0.14;59.06
21588;BME280;10956;48.878;13.316;2024-01-30T03:30:14;95506.72;;;0.05;58.99
21588;BME280;10956;48.878;13.316;2024-01-30T03:32:39;95504.97;;;-0.03;60.13
21588;BME280;10956;48.878;13.316;2024-01-30T03:35:05;95509.66;;;-0.07;60.46
21588;BME280;10956;48.878;13.316;2024-01-30T03:37:30;95507.25;;;-0.08;60.25
21588;BME280;10956;48.878;13.316;2024-01-30T03:39:56;95509.34;;;-0.04;56.17
21588;BME280;10956;48.878;13.316;2024-01-30T03:42:22;95508.06;;;-0.08;54.29
21588;BME280;10956;48.878;13.316;2024-01-30T03:44:47;95509.19;;;-0.10;52.80
21588;BME280;10956;48.878;13.316;2024-01-30T03:47:13;95507.09;;;-0.15;52.11
21588;BME280;10956;48.878;13.316;2024-01-30T03:49:38;95510.19;;;-0.19;52.87
21588;BME280;10956;48.878;13.316;2024-01-30T03:52:04;95509.25;;;-0.26;53.44
21588;BME280;10956;48.878;13.316;2024-01-30T03:54:29;95514.13;;;-0.31;53.80
21588;BME280;10956;48.878;13.316;2024-01-30T03:56:55;95515.75;;;-0.39;53.31
21588;BME280;10956;48.878;13.316;2024-01-30T03:59:20;95515.13;;;-0.41;53.79
21588;BME280;10956;48.878;13.316;2024-01-30T04:01:50;95509.28;;;-0.43;55.13
21588;BME280;10956;48.878;13.316;2024-01-30T04:04:16;95518.03;;;-0.44;57.14
21588;BME280;10956;48.878;13.316;2024-01-30T04:06:42;95517.22;;;-0.44;59.09
21588;BME280;10956;48.878;13.316;2024-01-30T04:09:07;95515.63;;;-0.45;58.16
21588;BME280;10956;48.878;13.316;2024-01-30T04:11:32;95519.34;;;-0.48;57.65
21588;BME280;10956;48.878;13.316;2024-01-30T04:13:58;95514.66;;;-0.52;60.46
21588;BME280;10956;48.878;13.316;2024-01-30T04:16:23;95515.97;;;-0.56;62.03
21588;BME280;10956;48.878;13.316;2024-01-30T04:18:48;95517.75;;;-0.57;59.45
21588;BME280;10956;48.878;13.316;2024-01-30T04:21:14;95519.34;;;-0.56;60.17
21588;BME280;10956;48.878;13.316;2024-01-30T04:23:40;95518.41;;;-0.63;59.54
21588;BME280;10956;48.878;13.316;2024-01-30T04:26:06;95518.41;;;-0.63;57.50
21588;BME280;10956;48.878;13.316;2024-01-30T04:28:32;95512.41;;;-0.63;57.76
21588;BME280;10956;48.878;13.316;2024-01-30T04:30:57;95510.13;;;-0.58;58.08
21588;BME280;10956;48.878;13.316;2024-01-30T04:33:23;95516.78;;;-0.56;58.82
21588;BME280;10956;48.878;13.316;2024-01-30T04:35:48;95521.00;;;-0.63;61.88
21588;BME280;10956;48.878;13.316;2024-01-30T04:38:13;95516.13;;;-0.66;59.46
21588;BME280;10956;48.878;13.316;2024-01-30T04:40:40;95519.88;;;-0.69;61.08
21588;BME280;10956;48.878;13.316;2024-01-30T04:43:05;95513.06;;;-0.70;62.19
21588;BME280;10956;48.878;13.316;2024-01-30T04:45:30;95512.91;;;-0.68;63.78
21588;BME280;10956;48.878;13.316;2024-01-30T04:47:56;95519.06;;;-0.69;63.09
21588;BME280;10956;48.878;13.316;2024-01-30T04:50:21;95520.66;;;-0.68;62.95
21588;BME280;10956;48.878;13.316;2024-01-30T04:52:47;95517.44;;;-0.70;63.13
21588;BME280;10956;48.878;13.316;2024-01-30T04:55:12;95524.56;;;-0.72;63.84
21588;BME280;10956;48.878;13.316;2024-01-30T04:57:38;95521.00;;;-0.71;66.58
21588;BME280;10956;48.878;13.316;2024-01-30T05:00:03;95529.41;;;-0.69;68.28
21588;BME280;10956;48.878;13.316;2024-01-30T05:02:30;95522.63;;;-0.70;66.58
21588;BME280;10956;48.878;13.316;2024-01-30T05:04:56;95527.31;;;-0.74;67.26
21588;BME280;10956;48.878;13.316;2024-01-30T05:07:21;95526.50;;;-0.74;66.77
21588;BME280;10956;48.878;13.316;2024-01-30T05:09:47;95524.88;;;-0.75;67.80
21588;BME280;10956;48.878;13.316;2024-01-30T05:12:12;95533.94;;;-0.71;68.88
21588;BME280;10956;48.878;13.316;2024-01-30T05:14:37;95530.69;;;-0.65;70.00
21588;BME280;10956;48.878;13.316;2024-01-30T05:17:03;95529.72;;;-0.56;70.11
21588;BME280;10956;48.878;13.316;2024-01-30T05:19:29;95530.03;;;-0.59;71.05
21588;BME280;10956;48.878;13.316;2024-01-30T05:21:54;95530.84;;;-0.58;70.41
21588;BME280;10956;48.878;13.316;2024-01-30T05:24:19;95542.03;;;-0.58;71.04
21588;BME280;10956;48.878;13.316;2024-01-30T05:26:45;95538.13;;;-0.54;71.50
21588;BME280;10956;48.878;13.316;2024-01-30T05:29:10;95535.56;;;-0.62;72.56
21588;BME280;10956;48.878;13.316;2024-01-30T05:31:36;95534.59;;;-0.69;73.39
21588;BME280;10956;48.878;13.316;2024-01-30T05:34:01;95544.13;;;-0.70;67.13
21588;BME280;10956;48.878;13.316;2024-01-30T05:36:27;95540.72;;;-0.62;67.14
21588;BME280;10956;48.878;13.316;2024-01-30T05:38:52;95545.25;;;-0.64;68.60
21588;BME280;10956;48.878;13.316;2024-01-30T05:41:18;95537.97;;;-0.60;71.19
21588;BME280;10956;48.878;13.316;2024-01-30T05:43:44;95535.72;;;-0.55;70.03
21588;BME280;10956;48.878;13.316;2024-01-30T05:46:09;95533.75;;;-0.45;68.18
21588;BME280;10956;48.878;13.316;2024-01-30T05:48:34;95538.44;;;-0.49;69.69
21588;BME280;10956;48.878;13.316;2024-01-30T05:51:01;95535.53;;;-0.54;71.06
21588;BME280;10956;48.878;13.316;2024-01-30T05:53:27;95545.06;;;-0.46;69.28
21588;BME280;10956;48.878;13.316;2024-01-30T05:55:52;95546.69;;;-0.45;66.85
21588;BME280;10956;48.878;13.316;2024-01-30T05:58:17;95537.47;;;-0.48;65.50
21588;BME280;10956;48.878;13.316;2024-01-30T06:00:43;95543.63;;;-0.57;66.17
21588;BME280;10956;48.878;13.316;2024-01-30T06:03:08;95552.69;;;-0.61;67.10
21588;BME280;10956;48.878;13.316;2024-01-30T06:05:34;95560.63;;;-0.62;69.29
21588;BME280;10956;48.878;13.316;2024-01-30T06:07:59;95555.31;;;-0.69;70.80
21588;BME280;10956;48.878;13.316;2024-01-30T06:10:24;95555.94;;;-0.75;67.58
21588;BME280;10956;48.878;13.316;2024-01-30T06:12:50;95561.13;;;-0.75;65.87
21588;BME280;10956;48.878;13.316;2024-01-30T06:15:15;95552.88;;;-0.79;66.22
21588;BME280;10956;48.878;13.316;2024-01-30T06:17:41;95554.66;;;-0.79;66.55
21588;BME280;10956;48.878;13.316;2024-01-30T06:20:06;95552.88;;;-0.71;66.15
21588;BME280;10956;48.878;13.316;2024-01-30T06:22:32;95551.41;;;-0.65;65.92
21588;BME280;10956;48.878;13.316;2024-01-30T06:24:58;95553.69;;;-0.62;64.92
21588;BME280;10956;48.878;13.316;2024-01-30T06:27:23;95557.88;;;-0.61;63.62
21588;BME280;10956;48.878;13.316;2024-01-30T06:29:48;95559.50;;;-0.60;63.68
21588;BME280;10956;48.878;13.316;2024-01-30T06:32:14;95563.84;;;-0.52;63.23
21588;BME280;10956;48.878;13.316;2024-01-30T06:34:41;95560.78;;;-0.56;63.88
21588;BME280;10956;48.878;13.316;2024-01-30T06:37:06;95565.97;;;-0.56;63.97
21588;BME280;10956;48.878;13.316;2024-01-30T06:39:32;95561.91;;;-0.50;64.10
21588;BME280;10956;48.878;13.316;2024-01-30T06:41:57;95572.09;;;-0.49;63.50
21588;BME280;10956;48.878;13.316;2024-01-30T06:44:22;95563.03;;;-0.45;64.44
21588;BME280;10956;48.878;13.316;2024-01-30T06:46:48;95563.53;;;-0.41;63.83
21588;BME280;10956;48.878;13.316;2024-01-30T06:49:13;95568.22;;;-0.45;63.89
21588;BME280;10956;48.878;13.316;2024-01-30T06:51:39;95570.97;;;-0.46;64.16
21588;BME280;10956;48.878;13.316;2024-01-30T06:54:04;95567.56;;;-0.47;62.78
21588;BME280;10956;48.878;13.316;2024-01-30T06:56:30;95570.19;;;-0.55;60.70
21588;BME280;10956;48.878;13.316;2024-01-30T06:58:55;95574.22;;;-0.60;60.31
21588;BME280;10956;48.878;13.316;2024-01-30T07:01:21;95578.59;;;-0.61;60.78
21588;BME280;10956;48.878;13.316;2024-01-30T07:03:52;95587.97;;;-0.60;62.35
21588;BME280;10956;48.878;13.316;2024-01-30T07:06:17;95576.66;;;-0.59;65.24
21588;BME280;10956;48.878;13.316;2024-01-30T07:08:43;95590.56;;;-0.52;66.54
21588;BME280;10956;48.878;13.316;2024-01-30T07:11:08;95578.56;;;-0.45;67.57
21588;BME280;10956;48.878;13.316;2024-01-30T07:13:34;95572.75;;;-0.39;69.60
21588;BME280;10956;48.878;13.316;2024-01-30T07:16:00;95581.31;;;-0.38;71.35
21588;BME280;10956;48.878;13.316;2024-01-30T07:18:26;95577.91;;;-0.30;72.58
21588;BME280;10956;48.878;13.316;2024-01-30T07:20:51;95574.31;;;-0.21;74.02
21588;BME280;10956;48.878;13.316;2024-01-30T07:23:17;95573.66;;;-0.15;75.37
21588;BME280;10956;48.878;13.316;2024-01-30T07:25:46;95576.56;;;-0.10;73.88
21588;BME280;10956;48.878;13.316;2024-01-30T07:28:14;95584.50;;;-0.04;72.98
21588;BME280;10956;48.878;13.316;2024-01-30T07:30:41;95581.91;;;-0.04;71.77
21588;BME280;10956;48.878;13.316;2024-01-30T07:33:07;95578.66;;;-0.06;71.51
21588;BME280;10956;48.878;13.316;2024-01-30T07:35:34;95586.28;;;-0.04;71.71
21588;BME280;10956;48.878;13.316;2024-01-30T07:37:59;95585.59;;;0.02;70.78
21588;BME280;10956;48.878;13.316;2024-01-30T07:40:24;95587.03;;;0.13;70.52
21588;BME280;10956;48.878;13.316;2024-01-30T07:42:50;95591.22;;;0.22;70.57
21588;BME280;10956;48.878;13.316;2024-01-30T07:45:15;95593.31;;;0.26;71.14
21588;BME280;10956;48.878;13.316;2024-01-30T07:47:41;95588.94;;;0.27;71.55
21588;BME280;10956;48.878;13.316;2024-01-30T07:50:07;95586.50;;;0.25;73.00
21588;BME280;10956;48.878;13.316;2024-01-30T07:52:33;95587.78;;;0.29;73.88
21588;BME280;10956;48.878;13.316;2024-01-30T07:54:58;95587.56;;;0.39;73.87
21588;BME280;10956;48.878;13.316;2024-01-30T07:57:24;95596.81;;;0.42;73.98
21588;BME280;10956;48.878;13.316;2024-01-30T07:59:50;95588.53;;;0.46;74.13
21588;BME280;10956;48.878;13.316;2024-01-30T08:02:15;95590.13;;;0.47;74.45
21588;BME280;10956;48.878;13.316;2024-01-30T08:04:41;95593.84;;;0.53;75.03
21588;BME280;10956;48.878;13.316;2024-01-30T08:07:06;95593.19;;;0.51;75.05
21588;BME280;10956;48.878;13.316;2024-01-30T08:09:31;95600.97;;;0.51;75.73
21588;BME280;10956;48.878;13.316;2024-01-30T08:11:57;95594.13;;;0.58;77.00
21588;BME280;10956;48.878;13.316;2024-01-30T08:14:22;95598.66;;;0.64;77.07
21588;BME280;10956;48.878;13.316;2024-01-30T08:16:48;95593.13;;;0.67;77.02
21588;BME280;10956;48.878;13.316;2024-01-30T08:19:14;95602.34;;;0.70;77.14
21588;BME280;10956;48.878;13.316;2024-01-30T08:21:40;95597.63;;;0.73;76.60
21588;BME280;10956;48.878;13.316;2024-01-30T08:24:06;95604.09;;;0.77;76.30
21588;BME280;10956;48.878;13.316;2024-01-30T08:26:32;95602.44;;;0.84;76.06
21588;BME280;10956;48.878;13.316;2024-01-30T08:28:57;95602.09;;;0.87;75.72
21588;BME280;10956;48.878;13.316;2024-01-30T08:31:23;95600.13;;;0.89;75.61
21588;BME280;10956;48.878;13.316;2024-01-30T08:33:48;95603.81;;;0.95;75.31
21588;BME280;10956;48.878;13.316;2024-01-30T08:36:15;95609.59;;;1.05;74.30
21588;BME280;10956;48.878;13.316;2024-01-30T08:38:40;95615.56;;;1.14;73.59
21588;BME280;10956;48.878;13.316;2024-01-30T08:41:07;95605.97;;;1.14;73.22
21588;BME280;10956;48.878;13.316;2024-01-30T08:43:32;95603.84;;;1.18;72.94
21588;BME280;10956;48.878;13.316;2024-01-30T08:46:01;95601.19;;;1.26;72.45
21588;BME280;10956;48.878;13.316;2024-01-30T08:48:27;95607.66;;;1.30;72.16
21588;BME280;10956;48.878;13.316;2024-01-30T08:50:52;95598.88;;;1.31;72.08
21588;BME280;10956;48.878;13.316;2024-01-30T08:53:18;95600.16;;;1.35;71.73
21588;BME280;10956;48.878;13.316;2024-01-30T08:55:44;95601.59;;;1.38;71.95
21588;BME280;10956;48.878;13.316;2024-01-30T08:58:09;95604.28;;;1.44;71.43
21588;BME280;10956;48.878;13.316;2024-01-30T09:00:35;95600.34;;;1.48;71.40
21588;BME280;10956;48.878;13.316;2024-01-30T09:03:00;95607.16;;;1.49;71.71
21588;BME280;10956;48.878;13.316;2024-01-30T09:05:26;95607.28;;;1.56;71.58
21588;BME280;10956;48.878;13.316;2024-01-30T09:07:52;95605.41;;;1.65;71.30
21588;BME280;10956;48.878;13.316;2024-01-30T09:10:18;95605.69;;;1.70;70.81
21588;BME280;10956;48.878;13.316;2024-01-30T09:12:43;95605.16;;;1.74;70.77
21588;BME280;10956;48.878;13.316;2024-01-30T09:15:09;95613.59;;;1.76;70.81
21588;BME280;10956;48.878;13.316;2024-01-30T09:17:34;95604.91;;;1.84;70.86
21588;BME280;10956;48.878;13.316;2024-01-30T09:19:59;95609.75;;;1.87;70.53
21588;BME280;10956;48.878;13.316;2024-01-30T09:22:25;95602.59;;;1.89;70.35
21588;BME280;10956;48.878;13.316;2024-01-30T09:24:51;95613.44;;;1.92;70.41
21588;BME280;10956;48.878;13.316;2024-01-30T09:27:16;95603.84;;;1.93;70.75
21588;BME280;10956;48.878;13.316;2024-01-30T09:29:41;95603.84;;;1.93;71.13
21588;BME280;10956;48.878;13.316;2024-01-30T09:32:07;95604.31;;;1.97;71.58
21588;BME280;10956;48.878;13.316;2024-01-30T09:34:34;95613.38;;;2.01;71.82
21588;BME280;10956;48.878;13.316;2024-01-30T09:36:59;95605.66;;;2.07;71.73
21588;BME280;10956;48.878;13.316;2024-01-30T09:39:25;95614.09;;;2.09;71.53
21588;BME280;10956;48.878;13.316;2024-01-30T09:44:37;95614.63;;;2.19;71.55
21588;BME280;10956;48.878;13.316;2024-01-30T09:47:03;95611.03;;;2.20;71.55
21588;BME280;10956;48.878;13.316;2024-01-30T09:49:34;95612.66;;;2.21;71.50
21588;BME280;10956;48.878;13.316;2024-01-30T09:52:01;95615.19;;;2.30;71.26
21588;BME280;10956;48.878;13.316;2024-01-30T09:54:30;95617.94;;;2.43;70.60
21588;BME280;10956;48.878;13.316;2024-01-30T09:56:56;95619.19;;;2.47;69.81
21588;BME280;10956;48.878;13.316;2024-01-30T09:59:21;95618.22;;;2.48;69.99
21588;BME280;10956;48.878;13.316;2024-01-30T10:01:47;95617.84;;;2.51;69.82
21588;BME280;10956;48.878;13.316;2024-01-30T10:04:13;95617.13;;;2.57;69.98
21588;BME280;10956;48.878;13.316;2024-01-30T10:06:40;95617.66;;;2.67;69.39
21588;BME280;10956;48.878;13.316;2024-01-30T10:09:05;95617.00;;;2.80;68.02
21588;BME280;10956;48.878;13.316;2024-01-30T10:11:31;95609.91;;;2.88;66.76
21588;BME280;10956;48.878;13.316;2024-01-30T10:13:56;95606.19;;;2.98;65.63
21588;BME280;10956;48.878;13.316;2024-01-30T10:16:21;95600.00;;;2.99;65.01
21588;BME280;10956;48.878;13.316;2024-01-30T10:18:47;95606.81;;;3.00;64.72
21588;BME280;10956;48.878;13.316;2024-01-30T10:21:12;95602.13;;;3.10;64.16
21588;BME280;10956;48.878;13.316;2024-01-30T10:23:38;95603.25;;;3.22;62.42
21588;BME280;10956;48.878;13.316;2024-01-30T10:26:07;95595.72;;;3.34;61.13
21588;BME280;10956;48.878;13.316;2024-01-30T10:28:33;95593.63;;;3.44;60.53
21588;BME280;10956;48.878;13.316;2024-01-30T10:30:59;95592.19;;;3.41;61.39
21588;BME280;10956;48.878;13.316;2024-01-30T10:33:35;95587.78;;;3.42;60.94
21588;BME280;10956;48.878;13.316;2024-01-30T10:36:02;95594.44;;;3.44;60.75
21588;BME280;10956;48.878;13.316;2024-01-30T10:38:29;95585.63;;;3.45;61.50
21588;BME280;10956;48.878;13.316;2024-01-30T10:40:59;95582.44;;;3.50;61.28
21588;BME280;10956;48.878;13.316;2024-01-30T10:43:33;95578.03;;;3.50;61.65
21588;BME280;10956;48.878;13.316;2024-01-30T10:46:18;95574.94;;;3.62;61.79
21588;BME280;10956;48.878;13.316;2024-01-30T10:48:57;95572.19;;;3.70;61.84
21588;BME280;10956;48.878;13.316;2024-01-30T10:51:25;95568.19;;;3.74;61.82
21588;BME280;10956;48.878;13.316;2024-01-30T10:53:52;95561.38;;;3.73;62.22
21588;BME280;10956;48.878;13.316;2024-01-30T10:56:20;95567.19;;;3.75;62.34
21588;BME280;10956;48.878;13.316;2024-01-30T10:58:49;95568.19;;;3.74;62.64
21588;BME280;10956;48.878;13.316;2024-01-30T11:01:15;95573.03;;;3.77;62.53
21588;BME280;10956;48.878;13.316;2024-01-30T11:03:41;95564.88;;;3.86;62.14
21588;BME280;10956;48.878;13.316;2024-01-30T11:06:11;95575.97;;;3.95;62.77
21588;BME280;10956;48.878;13.316;2024-01-30T11:08:39;95570.00;;;4.01;62.45
21588;BME280;10956;48.878;13.316;2024-01-30T11:11:08;95577.25;;;4.06;62.04
21588;BME280;10956;48.878;13.316;2024-01-30T11:13:34;95564.44;;;4.11;61.79
21588;BME280;10956;48.878;13.316;2024-01-30T11:16:01;95568.69;;;4.18;62.05
21588;BME280;10956;48.878;13.316;2024-01-30T11:18:29;95568.16;;;4.30;62.66
21588;BME280;10956;48.878;13.316;2024-01-30T11:20:59;95565.75;;;4.35;61.43
21588;BME280;10956;48.878;13.316;2024-01-30T11:23:27;95555.72;;;4.32;62.22
21588;BME280;10956;48.878;13.316;2024-01-30T11:25:53;95548.66;;;4.26;62.53
21588;BME280;10956;48.878;13.316;2024-01-30T11:28:21;95550.22;;;4.20;63.13
21588;BME280;10956;48.878;13.316;2024-01-30T11:30:46;95551.66;;;4.22;61.98
21588;BME280;10956;48.878;13.316;2024-01-30T11:33:14;95550.88;;;4.29;61.45
21588;BME280;10956;48.878;13.316;2024-01-30T11:35:43;95543.28;;;4.34;60.96
21588;BME280;10956;48.878;13.316;2024-01-30T11:38:10;95542.53;;;4.46;60.96
21588;BME280;10956;48.878;13.316;2024-01-30T11:40:38;95537.53;;;4.51;60.81
21588;BME280;10956;48.878;13.316;2024-01-30T11:43:05;95539.78;;;4.68;60.58
21588;BME280;10956;48.878;13.316;2024-01-30T11:45:31;95537.38;;;4.66;60.13
21588;BME280;10956;48.878;13.316;2024-01-30T11:47:57;95534.19;;;4.71;59.86
21588;BME280;10956;48.878;13.316;2024-01-30T11:50:24;95535.38;;;4.68;59.43
21588;BME280;10956;48.878;13.316;2024-01-30T11:52:50;95534.75;;;4.66;59.30
21588;BME280;10956;48.878;13.316;2024-01-30T11:55:15;95534.97;;;4.71;59.66
21588;BME280;10956;48.878;13.316;2024-01-30T11:57:42;95528.59;;;4.80;59.24
21588;BME280;10956;48.878;13.316;2024-01-30T12:00:17;95526.19;;;4.85;59.33
21588;BME280;10956;48.878;13.316;2024-01-30T12:02:44;95525.59;;;4.90;59.30
21588;BME280;10956;48.878;13.316;2024-01-30T12:05:13;95527.00;;;4.93;59.10
21588;BME280;10956;48.878;13.316;2024-01-30T12:07:39;95514.16;;;4.98;59.54
21588;BME280;10956;48.878;13.316;2024-01-30T12:10:04;95510.53;;;4.99;59.59
21588;BME280;10956;48.878;13.316;2024-01-30T12:12:31;95506.72;;;4.95;59.96
21588;BME280;10956;48.878;13.316;2024-01-30T12:14:56;95504.50;;;4.92;60.12
21588;BME280;10956;48.878;13.316;2024-01-30T12:17:29;95508.09;;;4.91;59.57
21588;BME280;10956;48.878;13.316;2024-01-30T12:20:15;95505.31;;;4.99;58.56
21588;BME280;10956;48.878;13.316;2024-01-30T12:22:43;95499.50;;;5.10;58.13
21588;BME280;10956;48.878;13.316;2024-01-30T12:25:18;95496.50;;;5.19;58.21
21588;BME280;10956;48.878;13.316;2024-01-30T12:27:47;95495.69;;;5.26;58.09
21588;BME280;10956;48.878;13.316;2024-01-30T12:30:15;95492.88;;;5.27;58.13
21588;BME280;10956;48.878;13.316;2024-01-30T12:32:46;95496.09;;;5.29;58.05
21588;BME280;10956;48.878;13.316;2024-01-30T12:35:14;95492.47;;;5.30;58.35
21588;BME280;10956;48.878;13.316;2024-01-30T12:37:41;95490.25;;;5.34;58.07
21588;BME280;10956;48.878;13.316;2024-01-30T12:40:08;95486.84;;;5.33;57.99
21588;BME280;10956;48.878;13.316;2024-01-30T12:42:34;95491.66;;;5.36;57.87
21588;BME280;10956;48.878;13.316;2024-01-30T12:45:00;95497.50;;;5.38;57.37
21588;BME280;10956;48.878;13.316;2024-01-30T12:47:27;95489.66;;;5.38;58.44
21588;BME280;10956;48.878;13.316;2024-01-30T12:49:52;95495.69;;;5.39;59.88
21588;BME280;10956;48.878;13.316;2024-01-30T12:52:21;95482.00;;;5.43;59.72
21588;BME280;10956;48.878;13.316;2024-01-30T12:54:48;95489.44;;;5.46;59.18